createdAt,value
2023-05-14T00:02:15.681Z,6.97
2023-05-14T00:04:41.549Z,6.63
2023-05-14T00:07:07.383Z,6.93
2023-05-14T00:09:34.610Z,7.38
2023-05-14T00:12:00.351Z,7.47
2023-05-14T00:14:26.065Z,7.28
2023-05-14T00:16:51.792Z,7.57
2023-05-14T00:19:17.922Z,6.93
2023-05-14T00:21:43.723Z,7.80
2023-05-14T00:24:09.471Z,7.70
2023-05-14T00:26:35.173Z,7.35
2023-05-14T00:29:00.917Z,6.75
2023-05-14T00:31:26.648Z,7.63
2023-05-14T00:33:52.403Z,6.65
2023-05-14T00:36:18.124Z,7.72
2023-05-14T00:38:43.864Z,7.13
2023-05-14T00:41:09.647Z,7.45
2023-05-14T00:43:35.418Z,8.10
2023-05-14T00:48:26.420Z,8.00
2023-05-14T00:50:52.193Z,7.53
2023-05-14T00:53:18.434Z,7.32
2023-05-14T00:55:44.717Z,7.20
2023-05-14T00:58:11.450Z,8.80
2023-05-14T01:00:37.801Z,7.93
2023-05-14T01:03:04.029Z,7.68
2023-05-14T01:05:34.164Z,8.98
2023-05-14T01:08:04.648Z,7.25
2023-05-14T01:10:59.923Z,8.05
2023-05-14T01:13:40.780Z,8.45
2023-05-14T01:18:32.478Z,9.57
2023-05-14T01:20:58.415Z,7.75
2023-05-14T01:23:24.143Z,7.43
2023-05-14T01:25:49.875Z,7.95
2023-05-14T01:28:17.271Z,8.35
2023-05-14T01:30:45.270Z,7.40
2023-05-14T01:33:12.777Z,7.97
2023-05-14T01:35:38.707Z,8.32
2023-05-14T01:38:06.225Z,8.45
2023-05-14T01:40:33.286Z,8.52
2023-05-14T01:42:59.794Z,9.00
2023-05-14T01:45:25.648Z,9.38
2023-05-14T01:47:52.133Z,8.52
2023-05-14T01:50:18.052Z,9.10
2023-05-14T01:52:44.015Z,9.10
2023-05-14T01:55:09.979Z,9.13
2023-05-14T01:57:35.726Z,9.52
2023-05-14T02:00:01.483Z,9.20
2023-05-14T02:02:27.292Z,9.70
2023-05-14T02:04:53.048Z,8.68
2023-05-14T02:07:18.841Z,8.82
2023-05-14T02:09:44.670Z,8.68
2023-05-14T02:12:13.106Z,8.30
2023-05-14T02:14:38.938Z,8.30
2023-05-14T02:17:04.859Z,9.63
2023-05-14T02:19:30.614Z,9.27
2023-05-14T02:21:56.343Z,10.48
2023-05-14T02:24:22.080Z,9.27
2023-05-14T02:26:47.883Z,8.18
2023-05-14T02:29:13.675Z,8.65
2023-05-14T02:31:39.485Z,8.90
2023-05-14T02:34:08.446Z,9.88
2023-05-14T02:36:34.190Z,8.80
2023-05-14T02:39:04.025Z,9.27
2023-05-14T02:41:29.854Z,8.03
2023-05-14T02:43:55.669Z,9.85
2023-05-14T02:46:21.624Z,9.85
2023-05-14T02:48:47.390Z,8.63
2023-05-14T02:51:13.138Z,9.20
2023-05-14T02:53:38.947Z,8.23
2023-05-14T02:56:04.896Z,8.27
2023-05-14T02:58:30.670Z,8.10
2023-05-14T03:00:56.513Z,8.30
2023-05-14T03:03:22.906Z,8.40
2023-05-14T03:05:49.009Z,8.48
2023-05-14T03:08:14.897Z,8.43
2023-05-14T03:10:40.669Z,11.50
2023-05-14T03:13:06.421Z,12.57
2023-05-14T03:15:32.236Z,9.00
2023-05-14T03:17:57.985Z,8.05
2023-05-14T03:20:24.343Z,9.02
2023-05-14T03:22:50.311Z,7.82
2023-05-14T03:25:16.058Z,8.40
2023-05-14T03:27:41.782Z,8.48
2023-05-14T03:30:07.834Z,9.02
2023-05-14T03:32:33.643Z,9.32
2023-05-14T03:34:59.373Z,8.82
2023-05-14T03:37:25.099Z,7.63
2023-05-14T03:39:50.843Z,7.30
2023-05-14T03:42:16.569Z,8.15
2023-05-14T03:44:42.305Z,7.88
2023-05-14T03:47:08.058Z,7.78
2023-05-14T03:49:33.795Z,8.40
2023-05-14T03:51:59.510Z,8.70
2023-05-14T03:54:25.745Z,7.18
2023-05-14T03:56:51.522Z,8.48
2023-05-14T03:59:17.342Z,7.18
2023-05-14T04:01:43.648Z,8.02
2023-05-14T04:04:09.490Z,7.32
2023-05-14T04:06:35.686Z,7.82
2023-05-14T04:09:02.734Z,7.30
2023-05-14T04:11:28.650Z,7.07
2023-05-14T04:13:54.549Z,6.90
2023-05-14T04:16:20.383Z,7.38
2023-05-14T04:18:46.244Z,7.15
2023-05-14T04:21:12.149Z,7.25
2023-05-14T04:23:37.873Z,6.97
2023-05-14T04:26:04.434Z,6.70
2023-05-14T04:28:30.537Z,6.90
2023-05-14T04:30:56.373Z,7.20
2023-05-14T04:33:22.145Z,6.82
2023-05-14T04:35:47.931Z,6.68
2023-05-14T04:38:13.871Z,6.82
2023-05-14T04:40:40.761Z,6.97
2023-05-14T04:43:07.386Z,6.55
2023-05-14T04:45:34.328Z,6.90
2023-05-14T04:48:00.413Z,6.25
2023-05-14T04:50:26.508Z,5.93
2023-05-14T04:52:52.235Z,6.38
2023-05-14T04:55:18.006Z,6.10
2023-05-14T04:57:43.731Z,5.53
2023-05-14T05:00:10.532Z,6.45
2023-05-14T05:02:36.455Z,5.68
2023-05-14T05:05:03.398Z,4.95
2023-05-14T05:07:29.123Z,5.28
2023-05-14T05:09:54.952Z,5.50
2023-05-14T05:12:20.872Z,5.43
2023-05-14T05:14:46.606Z,4.43
2023-05-14T05:17:12.329Z,5.10
2023-05-14T05:19:43.828Z,4.53
2023-05-14T05:22:09.781Z,4.07
2023-05-14T05:24:35.498Z,4.22
2023-05-14T05:27:02.171Z,5.32
2023-05-14T05:29:27.915Z,4.32
2023-05-14T05:31:53.837Z,4.00
2023-05-14T05:34:20.148Z,4.05
2023-05-14T05:36:45.865Z,4.13
2023-05-14T05:39:11.732Z,3.80
2023-05-14T05:41:38.759Z,3.47
2023-05-14T05:44:04.541Z,3.25
2023-05-14T05:46:30.392Z,4.05
2023-05-14T05:48:56.668Z,3.95
2023-05-14T05:51:22.475Z,4.00
2023-05-14T05:53:48.236Z,3.92
2023-05-14T05:56:13.944Z,3.75
2023-05-14T05:58:39.749Z,3.80
2023-05-14T06:01:05.916Z,3.53
2023-05-14T06:03:31.662Z,3.70
2023-05-14T06:05:57.387Z,3.97
2023-05-14T06:08:23.132Z,3.47
2023-05-14T06:10:48.868Z,3.50
2023-05-14T06:13:14.665Z,3.03
2023-05-14T06:15:40.480Z,3.58
2023-05-14T06:18:06.236Z,3.83
2023-05-14T06:20:32.083Z,3.78
2023-05-14T06:22:57.822Z,3.35
2023-05-14T06:25:23.531Z,4.18
2023-05-14T06:27:49.361Z,3.90
2023-05-14T06:30:15.328Z,4.05
2023-05-14T06:32:41.192Z,4.40
2023-05-14T06:35:07.242Z,4.10
2023-05-14T06:37:33.012Z,3.53
2023-05-14T06:39:58.958Z,3.85
2023-05-14T06:42:25.731Z,3.67
2023-05-14T06:44:51.535Z,3.50
2023-05-14T06:47:17.270Z,3.80
2023-05-14T06:49:43.015Z,3.55
2023-05-14T06:52:08.771Z,3.80
2023-05-14T06:54:35.706Z,3.80
2023-05-14T06:57:01.468Z,4.10
2023-05-14T06:59:27.290Z,4.55
2023-05-14T07:01:53.206Z,3.80
2023-05-14T07:04:19.391Z,3.88
2023-05-14T07:06:45.607Z,3.95
2023-05-14T07:09:11.448Z,3.55
2023-05-14T07:11:37.457Z,4.22
2023-05-14T07:14:12.440Z,4.57
2023-05-14T07:16:38.321Z,4.38
2023-05-14T07:19:04.199Z,4.18
2023-05-14T07:21:31.183Z,4.22
2023-05-14T07:23:56.917Z,4.43
2023-05-14T07:26:23.826Z,3.30
2023-05-14T07:28:49.810Z,4.03
2023-05-14T07:31:15.707Z,3.53
2023-05-14T07:33:41.525Z,4.53
2023-05-14T07:36:07.655Z,3.88
2023-05-14T07:38:33.583Z,4.03
2023-05-14T07:40:59.413Z,4.18
2023-05-14T07:43:25.435Z,4.22
2023-05-14T07:45:51.316Z,3.80
2023-05-14T07:48:17.333Z,3.55
2023-05-14T07:50:43.614Z,3.35
2023-05-14T07:53:09.670Z,3.47
2023-05-14T07:55:35.453Z,3.17
2023-05-14T07:58:01.261Z,3.58
2023-05-14T08:00:28.165Z,3.70
2023-05-14T08:02:54.656Z,3.22
2023-05-14T08:05:21.014Z,3.38
2023-05-14T08:07:46.828Z,3.38
2023-05-14T08:10:12.695Z,3.80
2023-05-14T08:12:38.635Z,2.95
2023-05-14T08:15:07.991Z,2.65
2023-05-14T08:17:33.765Z,2.95
2023-05-14T08:19:59.876Z,3.28
2023-05-14T08:22:25.871Z,3.40
2023-05-14T08:24:51.650Z,3.70
2023-05-14T08:27:17.493Z,2.92
2023-05-14T08:29:43.582Z,3.30
2023-05-14T08:32:22.202Z,2.80
2023-05-14T08:34:50.089Z,3.75
2023-05-14T08:37:15.986Z,2.90
2023-05-14T08:39:41.747Z,2.47
2023-05-14T08:42:08.935Z,3.25
2023-05-14T08:44:48.351Z,2.50
2023-05-14T08:47:14.974Z,3.47
2023-05-14T08:49:44.402Z,2.63
2023-05-14T08:52:10.429Z,2.80
2023-05-14T08:54:36.246Z,2.45
2023-05-14T08:57:05.863Z,2.58
2023-05-14T08:59:31.645Z,2.80
2023-05-14T09:02:00.143Z,2.78
2023-05-14T09:04:27.508Z,3.10
2023-05-14T09:06:53.826Z,2.78
2023-05-14T09:09:23.007Z,2.38
2023-05-14T09:11:50.001Z,2.42
2023-05-14T09:14:15.983Z,2.55
2023-05-14T09:16:44.223Z,2.33
2023-05-14T09:19:11.373Z,3.55
2023-05-14T09:21:37.295Z,2.78
2023-05-14T09:24:03.355Z,2.67
2023-05-14T09:26:31.167Z,2.28
2023-05-14T09:29:00.318Z,3.05
2023-05-14T09:31:26.394Z,2.65
2023-05-14T09:33:52.847Z,2.60
2023-05-14T09:36:18.850Z,2.30
2023-05-14T09:38:44.892Z,2.08
2023-05-14T09:41:11.402Z,2.17
2023-05-14T09:43:37.295Z,2.38
2023-05-14T09:46:03.384Z,2.05
2023-05-14T09:48:29.320Z,2.47
2023-05-14T09:50:55.399Z,2.90
2023-05-14T09:53:21.226Z,2.90
2023-05-14T09:55:47.261Z,2.33
2023-05-14T09:58:14.029Z,3.10
2023-05-14T10:00:42.961Z,2.50
2023-05-14T10:03:10.958Z,2.80
2023-05-14T10:05:36.983Z,2.40
2023-05-14T10:08:05.174Z,2.78
2023-05-14T10:10:32.559Z,2.72
2023-05-14T10:13:07.926Z,3.13
2023-05-14T10:15:37.457Z,2.28
2023-05-14T10:18:05.542Z,2.92
2023-05-14T10:20:31.828Z,2.50
2023-05-14T10:22:57.890Z,2.38
2023-05-14T10:25:24.131Z,3.28
2023-05-14T10:27:50.363Z,2.35
2023-05-14T10:30:16.218Z,2.83
2023-05-14T10:32:43.610Z,3.10
2023-05-14T10:35:22.301Z,2.60
2023-05-14T10:37:50.660Z,2.05
2023-05-14T10:40:17.899Z,2.03
2023-05-14T10:42:45.860Z,2.17
2023-05-14T10:45:15.325Z,2.28
2023-05-14T10:47:48.195Z,2.10
2023-05-14T10:50:15.923Z,2.20
2023-05-14T10:52:42.871Z,2.15
2023-05-14T10:55:10.369Z,2.45
2023-05-14T10:57:37.779Z,2.28
2023-05-14T11:00:07.221Z,2.65
2023-05-14T11:02:35.504Z,2.30
2023-05-14T11:05:03.472Z,2.55
2023-05-14T11:07:31.818Z,2.28
2023-05-14T11:09:59.608Z,2.90
2023-05-14T11:12:26.865Z,2.55
2023-05-14T11:14:53.470Z,2.50
2023-05-14T11:17:19.777Z,2.42
2023-05-14T11:19:45.805Z,2.53
2023-05-14T11:22:14.548Z,2.90
2023-05-14T11:24:40.880Z,2.35
2023-05-14T11:27:07.389Z,2.35
2023-05-14T11:29:33.662Z,2.40
2023-05-14T11:31:59.805Z,2.45
2023-05-14T11:34:25.661Z,2.55
2023-05-14T11:36:51.543Z,2.90
2023-05-14T11:39:18.324Z,2.47
2023-05-14T11:41:45.344Z,3.10
2023-05-14T11:44:20.580Z,3.60
2023-05-14T11:46:58.469Z,3.33
2023-05-14T11:49:24.948Z,3.13
2023-05-14T11:51:56.877Z,3.35
2023-05-14T11:54:27.129Z,2.28
2023-05-14T11:56:53.789Z,2.60
2023-05-14T11:59:19.733Z,2.45
2023-05-14T12:01:50.646Z,2.38
2023-05-14T12:04:18.840Z,1.50
2023-05-14T12:06:46.200Z,2.45
2023-05-14T12:09:12.626Z,2.20
2023-05-14T12:11:38.654Z,2.35
2023-05-14T12:14:11.940Z,2.72
2023-05-14T12:16:39.366Z,2.47
2023-05-14T12:19:05.436Z,2.35
2023-05-14T12:21:31.498Z,2.63
2023-05-14T12:24:00.897Z,1.65
2023-05-14T12:26:28.233Z,2.55
2023-05-14T12:29:00.873Z,2.17
2023-05-14T12:31:34.280Z,1.95
2023-05-14T12:34:00.272Z,2.08
2023-05-14T12:36:26.593Z,2.40
2023-05-14T12:39:03.464Z,2.53
2023-05-14T12:41:30.391Z,2.25
2023-05-14T12:43:59.494Z,2.20
2023-05-14T12:46:26.834Z,2.10
2023-05-14T12:48:53.540Z,2.67
2023-05-14T12:51:19.625Z,2.70
2023-05-14T12:53:45.596Z,2.15
2023-05-14T12:56:11.817Z,2.38
2023-05-14T12:58:37.848Z,2.70
2023-05-14T13:01:07.557Z,2.30
2023-05-14T13:03:33.609Z,2.13
2023-05-14T13:05:59.548Z,2.08
2023-05-14T13:08:25.719Z,2.50
2023-05-14T13:10:52.449Z,1.90
2023-05-14T13:13:49.214Z,2.80
2023-05-14T13:16:16.254Z,2.95
2023-05-14T13:18:42.252Z,2.28
2023-05-14T13:21:08.210Z,2.05
2023-05-14T13:23:35.523Z,1.80
2023-05-14T13:26:01.552Z,2.10
2023-05-14T13:28:27.467Z,2.58
2023-05-14T13:31:05.148Z,1.90
2023-05-14T13:33:31.817Z,2.20
2023-05-14T13:35:57.971Z,1.88
2023-05-14T13:38:24.194Z,1.75
2023-05-14T13:40:50.002Z,2.92
2023-05-14T13:43:25.102Z,2.03
2023-05-14T13:45:51.065Z,2.67
2023-05-14T13:48:17.210Z,2.65
2023-05-14T13:50:43.243Z,2.10
2023-05-14T13:53:09.484Z,2.22
2023-05-14T13:55:35.708Z,2.10
2023-05-14T13:58:01.926Z,1.67
2023-05-14T14:00:27.786Z,1.92
2023-05-14T14:02:53.896Z,2.45
2023-05-14T14:05:20.085Z,1.88
2023-05-14T14:07:47.522Z,1.88
2023-05-14T14:10:13.610Z,1.95
2023-05-14T14:12:39.522Z,2.30
2023-05-14T14:15:05.690Z,1.77
2023-05-14T14:17:33.476Z,2.03
2023-05-14T14:19:59.773Z,1.98
2023-05-14T14:22:27.323Z,2.55
2023-05-14T14:24:55.232Z,2.28
2023-05-14T14:27:22.637Z,2.60
2023-05-14T14:29:48.617Z,2.50
2023-05-14T14:32:14.622Z,2.28
2023-05-14T14:34:40.655Z,2.30
2023-05-14T14:37:06.617Z,2.00
2023-05-14T14:39:33.541Z,2.03
2023-05-14T14:41:59.394Z,2.80
2023-05-14T14:44:31.437Z,2.17
2023-05-14T14:46:57.228Z,3.20
2023-05-14T14:49:23.151Z,2.67
2023-05-14T14:51:49.199Z,2.40
2023-05-14T14:54:15.356Z,2.40
2023-05-14T14:56:42.584Z,2.58
2023-05-14T14:59:08.584Z,2.58
2023-05-14T15:01:34.799Z,2.67
2023-05-14T15:04:00.732Z,2.95
2023-05-14T15:06:27.383Z,2.10
2023-05-14T15:08:53.238Z,2.60
2023-05-14T15:11:19.236Z,2.38
2023-05-14T15:14:13.432Z,2.13
2023-05-14T15:16:39.422Z,2.65
2023-05-14T15:19:05.323Z,3.13
2023-05-14T15:21:31.523Z,2.50
2023-05-14T15:23:57.730Z,3.58
2023-05-14T15:26:24.164Z,2.33
2023-05-14T15:28:50.255Z,3.45
2023-05-14T15:31:16.604Z,2.85
2023-05-14T15:33:42.535Z,2.63
2023-05-14T15:36:08.510Z,2.03
2023-05-14T15:38:34.882Z,3.63
2023-05-14T15:41:00.902Z,3.00
2023-05-14T15:43:26.806Z,2.10
2023-05-14T15:45:52.847Z,2.20
2023-05-14T15:48:21.280Z,2.10
2023-05-14T15:50:48.978Z,2.58
2023-05-14T15:53:15.571Z,2.40
2023-05-14T15:55:41.578Z,2.25
2023-05-14T15:58:07.906Z,2.08
2023-05-14T16:00:33.763Z,2.22
2023-05-14T16:03:00.028Z,2.45
2023-05-14T16:05:26.151Z,1.90
2023-05-14T16:07:52.349Z,2.30
2023-05-14T16:10:19.454Z,2.30
2023-05-14T16:12:45.363Z,2.65
2023-05-14T16:15:11.228Z,1.83
2023-05-14T16:17:37.331Z,1.70
2023-05-14T16:20:06.526Z,2.53
2023-05-14T16:22:34.295Z,2.08
2023-05-14T16:25:02.564Z,1.83
2023-05-14T16:27:29.549Z,1.77
2023-05-14T16:29:55.738Z,1.98
2023-05-14T16:32:22.425Z,2.28
2023-05-14T16:34:51.683Z,3.15
2023-05-14T16:37:19.302Z,2.72
2023-05-14T16:39:45.619Z,2.20
2023-05-14T16:42:11.792Z,2.17
2023-05-14T16:44:46.811Z,2.05
2023-05-14T16:47:12.661Z,1.88
2023-05-14T16:49:39.124Z,1.70
2023-05-14T16:52:05.653Z,1.98
2023-05-14T16:54:31.459Z,2.75
2023-05-14T16:56:57.474Z,2.08
2023-05-14T16:59:24.575Z,1.70
2023-05-14T17:01:50.552Z,2.10
2023-05-14T17:04:17.450Z,2.03
2023-05-14T17:06:43.610Z,1.80
2023-05-14T17:09:09.650Z,1.58
2023-05-14T17:11:35.684Z,1.67
2023-05-14T17:14:29.782Z,2.20
2023-05-14T17:16:55.855Z,2.20
2023-05-14T17:19:21.764Z,2.05
2023-05-14T17:21:47.978Z,1.90
2023-05-14T17:24:13.786Z,2.70
2023-05-14T17:26:41.475Z,2.45
2023-05-14T17:29:07.592Z,2.40
2023-05-14T17:31:36.481Z,2.40
2023-05-14T17:34:02.417Z,2.20
2023-05-14T17:36:28.593Z,2.05
2023-05-14T17:38:54.533Z,2.22
2023-05-14T17:41:20.957Z,1.98
2023-05-14T17:43:47.054Z,2.42
2023-05-14T17:46:13.036Z,3.53
2023-05-14T17:48:38.938Z,2.50
2023-05-14T17:51:05.412Z,3.15
2023-05-14T17:53:31.372Z,2.80
2023-05-14T17:55:57.288Z,2.40
2023-05-14T17:58:23.668Z,2.50
2023-05-14T18:00:49.696Z,2.92
2023-05-14T18:03:15.682Z,2.63
2023-05-14T18:05:41.742Z,3.08
2023-05-14T18:08:09.066Z,2.40
2023-05-14T18:10:35.626Z,2.55
2023-05-14T18:13:01.565Z,2.47
2023-05-14T18:15:27.638Z,2.55
2023-05-14T18:17:53.760Z,3.15
2023-05-14T18:20:19.954Z,3.08
2023-05-14T18:22:45.847Z,2.67
2023-05-14T18:25:12.342Z,2.90
2023-05-14T18:27:43.479Z,2.70
2023-05-14T18:30:13.922Z,3.25
2023-05-14T18:32:40.590Z,2.83
2023-05-14T18:35:08.229Z,2.90
2023-05-14T18:37:34.919Z,2.50
2023-05-14T18:40:01.768Z,2.95
2023-05-14T18:42:28.576Z,2.80
2023-05-14T18:44:54.530Z,2.50
2023-05-14T18:47:20.428Z,2.83
2023-05-14T18:49:46.578Z,2.00
2023-05-14T18:52:12.696Z,2.88
2023-05-14T18:54:38.647Z,2.65
2023-05-14T18:57:05.188Z,2.67
2023-05-14T18:59:31.176Z,3.05
2023-05-14T19:01:58.163Z,2.47
2023-05-14T19:04:24.849Z,3.33
2023-05-14T19:06:51.077Z,2.72
2023-05-14T19:09:20.390Z,2.72
2023-05-14T19:11:46.842Z,3.10
2023-05-14T19:14:22.213Z,2.90
2023-05-14T19:16:48.176Z,3.33
2023-05-14T19:19:14.231Z,2.72
2023-05-14T19:21:40.142Z,3.58
2023-05-14T19:24:06.115Z,5.43
2023-05-14T19:26:32.031Z,4.28
2023-05-14T19:28:58.055Z,3.75
2023-05-14T19:31:24.894Z,3.28
2023-05-14T19:33:53.083Z,2.40
2023-05-14T19:36:19.860Z,2.83
2023-05-14T19:38:46.188Z,3.63
2023-05-14T19:41:12.078Z,3.80
2023-05-14T19:43:37.901Z,3.13
2023-05-14T19:46:04.497Z,3.53
2023-05-14T19:48:32.986Z,4.43
2023-05-14T19:50:59.205Z,4.07
2023-05-14T19:53:29.162Z,4.13
2023-05-14T19:55:55.501Z,5.40
2023-05-14T19:58:21.471Z,4.47
2023-05-14T20:00:50.568Z,3.97
2023-05-14T20:03:16.874Z,3.28
2023-05-14T20:05:45.892Z,3.28
2023-05-14T20:08:12.032Z,3.55
2023-05-14T20:10:38.138Z,3.13
2023-05-14T20:13:32.438Z,3.65
2023-05-14T20:15:58.608Z,3.88
2023-05-14T20:18:24.409Z,4.10
2023-05-14T20:20:51.425Z,3.47
2023-05-14T20:23:17.336Z,3.72
2023-05-14T20:25:43.668Z,3.60
2023-05-14T20:28:10.100Z,3.40
2023-05-14T20:30:36.002Z,3.03
2023-05-14T20:33:02.294Z,3.55
2023-05-14T20:35:28.254Z,3.47
2023-05-14T20:37:54.166Z,3.58
2023-05-14T20:40:20.974Z,3.35
2023-05-14T20:42:46.905Z,3.30
2023-05-14T20:45:19.113Z,3.97
2023-05-14T20:47:46.111Z,3.88
2023-05-14T20:50:13.105Z,4.15
2023-05-14T20:52:39.284Z,3.97
2023-05-14T20:55:07.058Z,3.60
2023-05-14T20:57:33.052Z,4.60
2023-05-14T20:59:59.145Z,3.95
2023-05-14T21:02:25.693Z,3.80
2023-05-14T21:04:52.178Z,3.30
2023-05-14T21:07:18.196Z,4.15
2023-05-14T21:09:45.876Z,3.17
2023-05-14T21:12:12.069Z,3.85
2023-05-14T21:14:38.001Z,3.85
2023-05-14T21:17:04.017Z,4.32
2023-05-14T21:19:29.810Z,3.55
2023-05-14T21:21:55.614Z,3.05
2023-05-14T21:24:21.392Z,3.60
2023-05-14T21:26:47.108Z,3.75
2023-05-14T21:29:12.864Z,3.40
2023-05-14T21:31:39.518Z,3.90
2023-05-14T21:34:05.417Z,4.05
2023-05-14T21:36:31.224Z,3.88
2023-05-14T21:38:56.984Z,3.53
2023-05-14T21:41:22.702Z,3.65
2023-05-14T21:43:48.492Z,3.28
2023-05-14T21:46:14.353Z,3.58
2023-05-14T21:48:41.089Z,3.92
2023-05-14T21:51:07.186Z,3.95
2023-05-14T21:53:34.036Z,4.35
2023-05-14T21:55:59.856Z,4.30
2023-05-14T21:58:26.206Z,3.60
2023-05-14T22:00:51.960Z,3.95
2023-05-14T22:03:17.912Z,3.53
2023-05-14T22:05:43.778Z,4.40
2023-05-14T22:08:10.172Z,4.07
2023-05-14T22:10:35.919Z,3.45
2023-05-14T22:13:01.811Z,4.07
2023-05-14T22:15:27.523Z,4.55
2023-05-14T22:17:53.306Z,4.18
2023-05-14T22:20:19.028Z,4.90
2023-05-14T22:22:44.751Z,4.68
2023-05-14T22:25:10.490Z,4.97
2023-05-14T22:27:36.205Z,4.60
2023-05-14T22:30:01.955Z,4.65
2023-05-14T22:32:27.695Z,4.25
2023-05-14T22:34:53.542Z,4.80
2023-05-14T22:37:19.322Z,4.82
2023-05-14T22:39:45.076Z,4.43
2023-05-14T22:42:10.881Z,4.63
2023-05-14T22:44:36.628Z,4.47
2023-05-14T22:47:04.419Z,4.72
2023-05-14T22:49:30.379Z,4.70
2023-05-14T22:51:56.186Z,4.28
2023-05-14T22:54:21.988Z,5.13
2023-05-14T22:56:47.750Z,3.80
2023-05-14T22:59:13.509Z,4.50
2023-05-14T23:01:39.309Z,4.53
2023-05-14T23:04:05.102Z,4.45
2023-05-14T23:06:31.211Z,4.32
2023-05-14T23:08:57.119Z,4.18
2023-05-14T23:11:23.503Z,3.80
2023-05-14T23:13:49.885Z,2.72
2023-05-14T23:16:15.712Z,4.93
2023-05-14T23:18:42.170Z,4.00
2023-05-14T23:21:08.117Z,3.58
2023-05-14T23:23:34.493Z,4.50
2023-05-14T23:26:00.257Z,4.93
2023-05-14T23:28:26.026Z,5.32
2023-05-14T23:30:51.746Z,5.28
2023-05-14T23:33:18.254Z,5.68
2023-05-14T23:35:44.073Z,5.55
2023-05-14T23:38:09.875Z,5.47
2023-05-14T23:40:35.607Z,4.18
2023-05-14T23:43:01.350Z,4.97
2023-05-14T23:45:27.348Z,5.47
2023-05-14T23:47:53.992Z,4.20
2023-05-14T23:50:19.889Z,3.90
2023-05-14T23:52:46.171Z,4.28
2023-05-14T23:55:12.652Z,4.00
2023-05-14T23:57:38.651Z,4.18
